Time;durP1;ratioP1;P1;durP2;ratioP2;P2;SDS_P1;SDS_P2;PMS_P1;PMS_P2;Temp;Humidity;BMP_temperature;BMP_pressure;BME280_temperature;BME280_humidity;BME280_pressure;Samples;Min_cycle;Max_cycle;Signal;HPM_P1;HPM_P2
2023/08/03 00:00:12;;;;;;;0.57;0.40;;;18.70;99.90;;;19.02;100.00;98798.22;5195138;28;20045;-55
2023/08/03 00:02:46;;;;;;;0.40;0.40;;;18.70;99.90;;;19.03;100.00;98799.94;5198118;28;20180;-55
2023/08/03 00:05:19;;;;;;;0.90;0.50;;;18.70;99.90;;;19.02;100.00;98800.00;5193607;28;20059;-54
2023/08/03 00:07:52;;;;;;;1.13;0.32;;;18.70;99.90;;;19.01;100.00;98808.84;5199937;28;20049;-51
2023/08/03 00:10:26;;;;;;;0.70;0.22;;;18.70;99.90;;;19.04;100.00;98819.28;5193967;28;20128;-53
2023/08/03 00:12:59;;;;;;;0.47;0.35;;;18.70;99.90;;;19.03;100.00;98797.31;5199127;28;20419;-56
2023/08/03 00:15:31;;;;;;;1.40;0.60;;;18.70;99.90;;;19.05;100.00;98803.44;5197989;28;20049;-53
2023/08/03 00:18:03;;;;;;;1.42;0.43;;;18.70;99.90;;;19.05;100.00;98806.06;5191770;28;20045;-52
2023/08/03 00:20:36;;;;;;;2.17;0.50;;;18.70;99.90;;;18.98;100.00;98812.47;5190432;28;20514;-52
2023/08/03 00:23:08;;;;;;;1.15;0.50;;;18.70;99.90;;;18.92;100.00;98807.38;5191868;28;20052;-52
2023/08/03 00:25:42;;;;;;;0.30;0.30;;;18.60;99.90;;;18.89;100.00;98810.06;5183987;28;20041;-51
2023/08/03 00:28:14;;;;;;;0.32;0.32;;;18.60;99.90;;;18.87;100.00;98798.72;5199436;28;20045;-52
2023/08/03 00:30:47;;;;;;;0.50;0.50;;;18.60;99.90;;;18.85;100.00;98806.69;5184329;28;20046;-51
2023/08/03 00:33:19;;;;;;;1.95;0.40;;;18.60;99.90;;;18.85;100.00;98800.53;5192221;28;20053;-52
2023/08/03 00:35:51;;;;;;;0.65;0.30;;;18.60;99.90;;;18.85;100.00;98805.81;5193391;28;20069;-55
2023/08/03 00:38:24;;;;;;;1.63;0.60;;;18.60;99.90;;;18.84;100.00;98801.44;5189822;28;20053;-54
2023/08/03 00:40:57;;;;;;;0.50;0.40;;;18.60;99.90;;;18.89;100.00;98812.72;5189366;28;20060;-53
2023/08/03 00:43:30;;;;;;;0.93;0.35;;;18.60;99.90;;;18.84;100.00;98812.84;5199551;28;20061;-54
2023/08/03 00:46:05;;;;;;;3.83;0.60;;;18.60;99.90;;;18.89;100.00;98812.72;5199882;28;20103;-53
2023/08/03 00:48:38;;;;;;;1.00;0.47;;;18.60;99.90;;;18.88;100.00;98822.41;5193563;28;20045;-51
2023/08/03 00:51:11;;;;;;;1.27;0.40;;;18.60;99.90;;;18.88;100.00;98817.13;5201002;28;20522;-54
2023/08/03 00:53:46;;;;;;;0.63;0.28;;;18.60;99.90;;;18.87;100.00;98827.75;5202835;28;20041;-51
2023/08/03 00:56:23;;;;;;;0.77;0.28;;;18.60;99.90;;;18.91;100.00;98816.19;5195722;28;20046;-52
2023/08/03 00:58:55;;;;;;;1.35;0.28;;;18.60;99.90;;;18.90;100.00;98830.28;5192302;28;20053;-53
2023/08/03 01:01:27;;;;;;;2.53;0.40;;;18.60;99.90;;;18.89;100.00;98818.00;5203343;28;20411;-51
2023/08/03 01:04:01;;;;;;;0.85;0.32;;;18.60;99.90;;;18.90;100.00;98827.63;5203800;28;20099;-55
2023/08/03 01:06:33;;;;;;;0.38;0.32;;;18.60;99.90;;;18.93;100.00;98835.47;5203522;28;20050;-53
2023/08/03 01:09:06;;;;;;;0.35;0.32;;;18.60;99.90;;;18.95;100.00;98839.78;5204502;28;20069;-52
2023/08/03 01:11:42;;;;;;;1.65;0.40;;;18.60;99.90;;;18.97;100.00;98831.81;5203351;28;20053;-55
2023/08/03 01:14:15;;;;;;;0.95;0.30;;;18.60;99.90;;;18.99;100.00;98840.59;5203701;28;20054;-50
2023/08/03 01:16:47;;;;;;;0.65;0.43;;;18.70;99.90;;;19.01;100.00;98837.88;5182874;28;20158;-51
2023/08/03 01:19:20;;;;;;;0.40;0.40;;;18.70;99.90;;;19.02;100.00;98850.16;5192064;28;20056;-51
2023/08/03 01:21:53;;;;;;;0.65;0.20;;;18.70;99.90;;;19.02;100.00;98844.88;5183765;28;20042;-52
2023/08/03 01:24:27;;;;;;;0.40;0.40;;;18.70;99.90;;;19.00;100.00;98857.28;5183978;28;20116;-51
2023/08/03 01:27:00;;;;;;;0.98;0.60;;;18.70;99.90;;;19.00;100.00;98858.16;5183990;28;20045;-51
2023/08/03 01:29:33;;;;;;;0.80;0.43;;;18.70;99.90;;;18.98;100.00;98858.19;5185364;28;20057;-53
2023/08/03 01:32:06;;;;;;;0.32;0.32;;;18.70;99.90;;;18.98;100.00;98859.97;5183883;28;20042;-53
2023/08/03 01:34:39;;;;;;;0.30;0.30;;;18.70;99.90;;;18.96;100.00;98870.56;5183733;28;20415;-51
2023/08/03 01:37:11;;;;;;;0.82;0.40;;;18.70;99.90;;;18.95;100.00;98878.53;5183784;28;20061;-52
2023/08/03 01:39:46;;;;;;;0.90;0.47;;;18.70;99.90;;;18.97;100.00;98879.34;5183429;28;20065;-52
2023/08/03 01:42:19;;;;;;;0.80;0.30;;;18.70;99.90;;;18.96;100.00;98885.53;5183330;28;20060;-53
2023/08/03 01:44:51;;;;;;;0.68;0.38;;;18.70;99.90;;;18.98;100.00;98886.38;5187814;28;20037;-52
2023/08/03 01:47:24;;;;;;;0.95;0.40;;;18.70;99.90;;;18.95;100.00;98878.53;5203596;28;20053;-51
2023/08/03 01:49:56;;;;;;;1.20;0.40;;;18.70;99.90;;;18.95;100.00;98887.31;5203850;28;20526;-51
2023/08/03 01:52:28;;;;;;;0.82;0.40;;;18.60;99.90;;;18.96;100.00;98885.53;5203805;28;20045;-52
2023/08/03 01:55:02;;;;;;;0.82;0.50;;;18.60;99.90;;;18.94;100.00;98895.28;5203806;28;20126;-54
2023/08/03 01:57:35;;;;;;;0.60;0.38;;;18.60;99.90;;;18.93;100.00;98894.41;5203575;28;20388;-51
2023/08/03 02:00:09;;;;;;;0.60;0.38;;;18.60;99.90;;;18.94;100.00;98895.28;5203810;28;20419;-52
2023/08/03 02:02:47;;;;;;;0.63;0.47;;;18.60;99.90;;;18.92;100.00;98897.13;5204179;28;20038;-50
2023/08/03 02:05:22;;;;;;;0.40;0.40;;;18.60;99.90;;;18.92;100.00;98907.69;5203192;28;20045;-54
2023/08/03 02:07:55;;;;;;;1.00;0.43;;;18.60;99.90;;;18.93;100.00;98909.41;5203504;28;20053;-53
2023/08/03 02:10:29;;;;;;;0.30;0.30;;;18.60;99.90;;;18.94;100.00;98916.41;5202987;28;20053;-52
2023/08/03 02:13:01;;;;;;;0.43;0.30;;;18.60;99.90;;;18.94;100.00;98921.69;5203465;28;20093;-51
2023/08/03 02:15:33;;;;;;;1.15;0.32;;;18.60;99.90;;;18.95;100.00;98920.78;5202933;28;20060;-51
2023/08/03 02:18:09;;;;;;;1.05;0.38;;;18.60;99.90;;;18.98;100.00;98925.97;5203337;28;20065;-52
2023/08/03 02:20:41;;;;;;;0.50;0.50;;;18.70;99.90;;;18.97;100.00;98921.56;5203385;28;20145;-51
2023/08/03 02:23:14;;;;;;;0.30;0.30;;;18.60;99.90;;;18.96;100.00;98920.72;5203357;28;20073;-52
2023/08/03 02:25:47;;;;;;;1.77;0.22;;;18.60;99.90;;;18.95;100.00;98931.31;5203341;28;20125;-53
2023/08/03 02:28:20;;;;;;;0.30;0.30;;;18.60;99.90;;;18.93;100.00;98941.94;5203186;28;20080;-52
2023/08/03 02:30:53;;;;;;;0.63;0.35;;;18.60;99.90;;;18.96;100.00;98927.78;5204249;28;20043;-53
2023/08/03 02:33:26;;;;;;;0.55;0.35;;;18.60;99.90;;;18.94;100.00;98935.75;5203084;28;20045;-53
2023/08/03 02:35:58;;;;;;;0.80;0.52;;;18.60;99.90;;;18.93;100.00;98933.16;5198312;28;20065;-52
2023/08/03 02:38:31;;;;;;;0.30;0.30;;;18.60;99.90;;;18.91;100.00;98922.66;5183655;28;20133;-53
2023/08/03 02:41:06;;;;;;;0.30;0.30;;;18.60;99.90;;;18.94;100.00;98942.81;5203014;28;20049;-53
2023/08/03 02:43:39;;;;;;;1.48;0.43;;;18.60;99.90;;;18.92;100.00;98944.63;5203082;28;20041;-53
2023/08/03 02:46:12;;;;;;;0.57;0.40;;;18.60;99.90;;;18.91;100.00;98937.63;5203373;28;20052;-53
2023/08/03 02:48:45;;;;;;;0.35;0.35;;;18.60;99.90;;;18.90;100.00;98938.50;5202712;28;20056;-52
2023/08/03 02:51:18;;;;;;;0.30;0.30;;;18.60;99.90;;;18.92;100.00;98949.91;5202876;28;20115;-53
2023/08/03 02:53:50;;;;;;;1.25;0.40;;;18.60;99.90;;;18.92;100.00;98963.97;5202882;28;20106;-51
2023/08/03 02:56:24;;;;;;;2.10;0.40;;;18.60;99.90;;;18.92;100.00;98958.69;5202825;28;20470;-53
2023/08/03 02:58:59;;;;;;;1.80;0.50;;;18.60;99.90;;;18.90;100.00;98963.13;5202712;28;20103;-51
2023/08/03 03:01:41;;;;;;;0.38;0.38;;;18.60;99.90;;;18.90;100.00;98954.34;5202332;28;20053;-51
2023/08/03 03:04:13;;;;;;;1.33;0.40;;;18.60;99.90;;;18.91;100.00;98950.81;5195794;28;20057;-52
2023/08/03 03:06:49;;;;;;;0.20;0.20;;;18.60;99.90;;;18.90;100.00;98960.50;5181914;28;20422;-52
2023/08/03 03:09:23;;;;;;;0.80;0.40;;;18.60;99.90;;;18.88;100.00;98964.09;5182212;28;20503;-53
2023/08/03 03:11:59;;;;;;;1.00;0.30;;;18.60;99.90;;;18.88;100.00;98964.09;5182084;28;20407;-52
2023/08/03 03:14:42;;;;;;;0.32;0.30;;;18.60;99.90;;;18.86;100.00;98965.91;5180941;28;20591;-54
2023/08/03 03:17:15;;;;;;;0.55;0.28;;;18.60;99.90;;;18.86;100.00;98963.28;5182029;28;20120;-53
2023/08/03 03:19:50;;;;;;;0.40;0.32;;;18.60;99.90;;;18.86;100.00;98963.28;5181986;28;20046;-54
2023/08/03 03:22:23;;;;;;;0.70;0.28;;;18.60;99.90;;;18.83;100.00;98956.28;5182133;28;20049;-54
2023/08/03 03:24:55;;;;;;;0.52;0.40;;;18.50;99.90;;;18.86;100.00;98952.72;5185771;28;20064;-53
2023/08/03 03:27:29;;;;;;;0.55;0.20;;;18.50;99.90;;;18.83;100.00;98958.94;5202168;28;20049;-50
2023/08/03 03:30:02;;;;;;;1.08;0.22;;;18.50;99.90;;;18.82;100.00;98958.97;5202220;28;20056;-53
2023/08/03 03:32:38;;;;;;;0.22;0.22;;;18.50;99.90;;;18.78;100.00;98962.59;5201928;28;20052;-51
2023/08/03 03:35:11;;;;;;;1.02;0.50;;;18.50;99.90;;;18.77;100.00;98953.81;5201916;28;20128;-54
2023/08/03 03:37:43;;;;;;;0.25;0.25;;;18.50;99.90;;;18.76;100.00;98967.06;5201825;28;20065;-51
2023/08/03 03:40:16;;;;;;;0.35;0.32;;;18.50;99.90;;;18.78;100.00;98975.78;5194941;28;20046;-52
2023/08/03 03:42:52;;;;;;;0.60;0.22;;;18.50;99.90;;;18.75;100.00;98975.91;5184705;28;20100;-52
2023/08/03 03:45:25;;;;;;;0.55;0.30;;;18.40;99.90;;;18.69;100.00;98984.84;5185666;28;20096;-51
2023/08/03 03:47:59;;;;;;;1.45;0.30;;;18.40;99.90;;;18.61;100.00;98994.72;5201493;28;20052;-53
2023/08/03 03:50:31;;;;;;;0.40;0.40;;;18.40;99.90;;;18.51;100.00;99001.97;5201612;28;20069;-53
2023/08/03 03:53:04;;;;;;;1.15;0.60;;;18.30;99.90;;;18.42;100.00;98991.69;5201474;28;20041;-53
2023/08/03 03:55:39;;;;;;;0.43;0.32;;;18.20;99.90;;;18.35;100.00;98998.00;5193032;28;20053;-53
2023/08/03 03:58:12;;;;;;;0.90;0.30;;;18.10;99.90;;;18.30;100.00;98997.25;5187129;28;20500;-51
2023/08/03 04:00:45;;;;;;;1.25;0.32;;;18.10;99.90;;;18.27;100.00;98997.34;5199564;28;20056;-53
2023/08/03 04:03:19;;;;;;;0.20;0.20;;;18.00;99.90;;;18.24;100.00;98994.78;5194212;28;20077;-52
2023/08/03 04:05:51;;;;;;;1.48;0.30;;;18.00;99.90;;;18.20;100.00;98996.63;5191961;28;20053;-53
2023/08/03 04:08:26;;;;;;;0.20;0.20;;;17.90;99.90;;;18.16;100.00;99005.50;5201334;28;20049;-50
2023/08/03 04:10:59;;;;;;;0.30;0.30;;;17.90;99.90;;;18.15;100.00;99014.34;5197301;28;20057;-53
2023/08/03 04:13:34;;;;;;;0.55;0.22;;;17.90;99.90;;;18.13;100.00;99017.00;5180902;28;20053;-53
2023/08/03 04:16:06;;;;;;;0.22;0.22;;;17.90;99.90;;;18.12;100.00;99014.38;5186196;28;20050;-53
2023/08/03 04:18:42;;;;;;;0.22;0.22;;;17.90;99.90;;;18.12;100.00;99023.16;5183612;28;20053;-51
2023/08/03 04:21:15;;;;;;;0.82;0.43;;;17.80;99.90;;;18.12;100.00;99025.78;5186786;28;20507;-52
2023/08/03 04:23:47;;;;;;;0.30;0.30;;;17.80;99.90;;;18.10;100.00;99027.63;5200959;28;20502;-52
2023/08/03 04:26:19;;;;;;;1.08;0.40;;;17.80;99.90;;;18.07;100.00;99017.16;5200635;28;20069;-53
2023/08/03 04:28:53;;;;;;;0.22;0.22;;;17.80;99.90;;;18.04;100.00;99027.75;5184305;28;20052;-53
2023/08/03 04:31:27;;;;;;;0.38;0.30;;;17.80;99.90;;;17.98;100.00;99022.63;5193453;28;20144;-52
2023/08/03 04:34:00;;;;;;;0.30;0.30;;;17.70;99.90;;;17.98;100.00;99017.34;5188090;28;20046;-52
2023/08/03 04:36:34;;;;;;;1.17;0.40;;;17.70;99.90;;;17.98;100.00;99021.75;5197131;28;20060;-52
2023/08/03 04:39:07;;;;;;;0.40;0.30;;;17.70;99.90;;;17.96;100.00;99031.47;5192940;28;20510;-51
2023/08/03 04:41:39;;;;;;;0.30;0.30;;;17.70;99.90;;;17.96;100.00;99018.31;5200909;28;20547;-53
2023/08/03 04:44:13;;;;;;;0.75;0.30;;;17.70;99.90;;;17.93;100.00;99011.34;5200656;28;20052;-53
2023/08/03 04:46:45;;;;;;;0.50;0.50;;;17.70;99.90;;;17.87;100.00;99025.53;5184268;28;20052;-52
2023/08/03 04:49:18;;;;;;;0.35;0.32;;;17.60;99.90;;;17.84;100.00;99022.06;5194571;28;20067;-52
2023/08/03 04:51:56;;;;;;;0.88;0.30;;;17.60;99.90;;;17.84;100.00;99027.34;5191510;28;20053;-53
2023/08/03 04:54:29;;;;;;;0.35;0.30;;;17.60;99.90;;;17.84;100.00;99025.59;5200580;28;20065;-50
2023/08/03 04:57:01;;;;;;;0.88;0.20;;;17.60;99.90;;;17.83;100.00;99033.53;5188299;28;20050;-50
2023/08/03 04:59:40;;;;;;;1.17;0.30;;;17.60;99.90;;;17.82;100.00;99037.06;5181136;28;20056;-53
2023/08/03 05:02:13;;;;;;;2.10;0.32;;;17.60;99.90;;;17.85;100.00;99035.22;5200914;28;20045;-52
2023/08/03 05:04:45;;;;;;;0.20;0.20;;;17.60;99.90;;;17.86;100.00;99041.34;5192464;28;20064;-50
2023/08/03 05:07:19;;;;;;;0.22;0.22;;;17.60;99.90;;;17.88;100.00;99042.22;5201117;28;20046;-50
2023/08/03 05:09:52;;;;;;;0.20;0.20;;;17.60;99.90;;;17.89;100.00;99043.94;5192717;28;20045;-52
2023/08/03 05:12:25;;;;;;;0.28;0.25;;;17.60;99.90;;;17.93;100.00;99052.63;5185368;28;20523;-52
2023/08/03 05:14:59;;;;;;;0.20;0.20;;;17.70;99.90;;;17.93;100.00;99056.16;5188907;28;20617;-51
2023/08/03 05:17:31;;;;;;;1.20;0.20;;;17.60;99.90;;;17.97;100.00;99073.63;5180126;28;20048;-53
2023/08/03 05:20:04;;;;;;;1.08;0.28;;;17.70;99.90;;;18.00;100.00;99076.19;5192147;28;20045;-52
2023/08/03 05:22:36;;;;;;;0.30;0.30;;;17.70;99.90;;;18.01;100.00;99080.56;5192255;28;20041;-51
2023/08/03 05:25:10;;;;;;;0.73;0.20;;;17.70;99.90;;;18.02;100.00;99082.28;5196074;28;20058;-52
2023/08/03 05:27:42;;;;;;;0.30;0.30;;;17.80;99.90;;;18.00;100.00;99086.75;5197501;28;20045;-52
2023/08/03 05:30:16;;;;;;;0.52;0.20;;;17.70;99.90;;;18.00;100.00;99081.47;5194962;28;20136;-51
2023/08/03 05:32:53;;;;;;;0.47;0.30;;;17.70;99.90;;;18.01;100.00;99095.50;5179974;28;20112;-51
2023/08/03 05:35:25;;;;;;;0.57;0.20;;;17.70;99.90;;;18.00;100.00;99086.75;5195264;28;20057;-51
2023/08/03 05:37:58;;;;;;;0.28;0.28;;;17.80;99.90;;;18.05;100.00;99091.88;5200774;28;20048;-52
2023/08/03 05:40:30;;;;;;;0.17;0.17;;;17.80;99.90;;;18.06;100.00;99083.97;5196699;28;20046;-52
2023/08/03 05:43:02;;;;;;;0.40;0.20;;;17.80;99.90;;;18.10;100.00;99072.44;5195102;28;20406;-53
2023/08/03 05:45:41;;;;;;;0.20;0.20;;;17.80;99.90;;;18.14;100.00;99070.59;5195517;28;20454;-51
2023/08/03 05:48:16;;;;;;;0.47;0.22;;;17.80;99.90;;;18.17;100.00;99073.16;5195901;28;20093;-52
2023/08/03 05:50:53;;;;;;;0.47;0.20;;;17.90;99.90;;;18.21;100.00;99063.41;5189473;28;20049;-53
2023/08/03 05:53:26;;;;;;;0.20;0.13;;;17.90;99.90;;;18.26;100.00;99058.91;5181811;28;20069;-53
2023/08/03 05:55:59;;;;;;;0.20;0.20;;;17.90;99.90;;;18.31;100.00;99070.19;5184551;28;20060;-52
2023/08/03 05:58:32;;;;;;;0.30;0.20;;;18.00;99.90;;;18.47;100.00;99068.06;5194545;28;20446;-51
2023/08/03 06:01:07;;;;;;;0.10;0.10;;;18.10;99.90;;;18.59;100.00;99073.03;5186922;28;20065;-54
2023/08/03 06:03:44;;;;;;;0.68;0.30;;;18.20;99.90;;;18.62;100.00;99073.81;5202799;28;20056;-52
2023/08/03 06:06:19;;;;;;;0.13;0.13;;;18.20;99.90;;;18.65;100.00;99071.13;5203797;28;20053;-53
2023/08/03 06:08:58;;;;;;;0.20;0.20;;;18.30;99.90;;;18.63;100.00;99078.19;5203652;28;20053;-53
2023/08/03 06:11:32;;;;;;;0.10;0.10;;;18.30;99.90;;;18.68;100.00;99086.91;5203245;28;20057;-51
2023/08/03 06:14:05;;;;;;;0.30;0.13;;;18.30;99.90;;;18.72;100.00;99094.75;5195238;28;20125;-51
2023/08/03 06:16:39;;;;;;;0.20;0.10;;;18.40;99.90;;;18.75;100.00;99099.94;5187148;28;20054;-51
2023/08/03 06:19:11;;;;;;;1.60;0.20;;;18.40;99.90;;;18.79;100.00;99109.53;5182759;28;20504;-53
2023/08/03 06:21:44;;;;;;;0.43;0.20;;;18.40;99.90;;;18.83;100.00;99112.03;5184787;28;20286;-53
2023/08/03 06:24:16;;;;;;;0.75;0.17;;;18.50;99.90;;;18.86;100.00;99113.75;5203069;28;20045;-52
2023/08/03 06:26:49;;;;;;;0.28;0.22;;;18.50;99.90;;;18.90;100.00;99120.66;5202920;28;20076;-52
2023/08/03 06:29:21;;;;;;;0.57;0.20;;;18.60;99.90;;;18.90;100.00;99120.66;5197294;28;20045;-53
2023/08/03 06:31:55;;;;;;;0.43;0.30;;;18.60;99.90;;;18.92;100.00;99118.88;5199231;28;20053;-51
2023/08/03 06:34:28;;;;;;;0.45;0.20;;;18.60;99.90;;;19.01;100.00;99128.31;5188175;28;20410;-52
2023/08/03 06:37:03;;;;;;;0.10;0.10;;;18.60;99.90;;;19.05;100.00;99145.81;5201382;28;20049;-51
2023/08/03 06:39:36;;;;;;;0.20;0.13;;;18.70;99.90;;;19.07;100.00;99138.72;5194285;28;20270;-51
2023/08/03 06:42:08;;;;;;;0.13;0.13;;;18.70;99.90;;;19.08;100.00;99140.44;5193995;28;20042;-51
2023/08/03 06:44:41;;;;;;;0.20;0.20;;;18.70;99.90;;;19.10;100.00;99139.47;5202250;28;20537;-51
2023/08/03 06:47:15;;;;;;;0.17;0.17;;;18.80;99.90;;;19.08;100.00;99146.59;5197287;28;20073;-53
2023/08/03 06:49:48;;;;;;;0.45;0.25;;;18.70;99.90;;;19.08;100.00;99154.50;5194800;28;20054;-53
2023/08/03 06:52:20;;;;;;;0.13;0.13;;;18.80;99.90;;;19.08;100.00;99159.78;5188680;28;20046;-51
2023/08/03 06:54:53;;;;;;;0.40;0.08;;;18.80;99.90;;;19.08;100.00;99166.84;5191344;28;20057;-50
2023/08/03 06:57:25;;;;;;;0.20;0.20;;;18.80;99.90;;;19.10;100.00;99157.97;5196140;28;20061;-50
2023/08/03 06:59:58;;;;;;;1.08;0.25;;;18.70;99.90;;;19.15;100.00;99169.28;5192212;28;20069;-53
2023/08/03 07:02:32;;;;;;;0.13;0.13;;;18.80;99.90;;;19.17;100.00;99162.22;5197974;28;20052;-50
2023/08/03 07:05:05;;;;;;;0.17;0.17;;;18.80;99.90;;;19.19;100.00;99165.66;5211697;28;20042;-50
2023/08/03 07:07:38;;;;;;;0.30;0.22;;;18.80;99.90;;;19.19;100.00;99176.25;5194431;28;20053;-52
2023/08/03 07:10:10;;;;;;;0.10;0.10;;;18.90;99.90;;;19.18;100.00;99187.72;5199373;28;20042;-52
2023/08/03 07:12:43;;;;;;;0.20;0.20;;;18.90;99.90;;;19.19;100.00;99186.81;5192717;28;20525;-51
2023/08/03 07:15:16;;;;;;;0.40;0.20;;;18.90;99.90;;;19.20;100.00;99188.53;5193765;28;20095;-50
2023/08/03 07:17:50;;;;;;;0.28;0.28;;;18.90;99.90;;;19.20;100.00;99192.94;5193204;28;20089;-53
2023/08/03 07:20:22;;;;;;;0.13;0.13;;;18.90;99.90;;;19.20;100.00;99196.47;5201665;28;20046;-51
2023/08/03 07:22:57;;;;;;;0.20;0.20;;;18.90;99.90;;;19.22;100.00;99213.13;5191979;28;20045;-52
2023/08/03 07:25:33;;;;;;;0.82;0.30;;;18.80;99.90;;;19.20;100.00;99204.38;5195541;28;20046;-51
2023/08/03 07:28:05;;;;;;;0.13;0.13;;;18.90;99.90;;;19.20;100.00;99203.50;5193152;28;20095;-50
2023/08/03 07:30:38;;;;;;;0.25;0.25;;;18.90;99.90;;;19.20;100.00;99211.44;5193450;28;20037;-50
2023/08/03 07:33:12;;;;;;;0.20;0.20;;;18.90;99.90;;;19.19;100.00;99215.84;5191136;28;20057;-51
2023/08/03 07:35:44;;;;;;;0.13;0.13;;;18.80;99.90;;;19.20;100.00;99217.59;5181198;28;20056;-51
2023/08/03 07:38:16;;;;;;;0.30;0.30;;;18.90;99.90;;;19.24;100.00;99221.03;5188871;28;20042;-52
2023/08/03 07:40:49;;;;;;;0.30;0.20;;;18.90;99.90;;;19.23;100.00;99217.53;5189226;28;20072;-50
2023/08/03 07:43:21;;;;;;;1.27;0.35;;;18.90;99.90;;;19.23;100.00;99220.16;5185961;28;20049;-51
2023/08/03 07:45:53;;;;;;;1.65;0.30;;;18.90;99.90;;;19.22;100.00;99222.81;5184216;28;20049;-50
2023/08/03 07:48:27;;;;;;;1.83;0.98;;;18.90;99.90;;;19.21;100.00;99221.97;5189024;28;20057;-51
2023/08/03 07:51:00;;;;;;;0.50;0.20;;;18.90;99.90;;;19.24;100.00;99221.91;5182871;28;20053;-53
2023/08/03 07:53:32;;;;;;;0.38;0.32;;;18.90;99.90;;;19.29;100.00;99229.69;5201134;28;20100;-53
2023/08/03 07:56:05;;;;;;;0.90;0.30;;;18.90;99.90;;;19.33;100.00;99235.78;5192999;28;20058;-50
2023/08/03 07:58:37;;;;;;;1.13;0.30;;;19.00;99.90;;;19.37;100.00;99242.72;5193018;28;20060;-51
2023/08/03 08:01:12;;;;;;;0.22;0.22;;;19.00;99.90;;;19.41;100.00;99239.94;5192526;28;20053;-50
2023/08/03 08:03:47;;;;;;;0.22;0.20;;;19.00;99.90;;;19.46;100.00;99247.75;5200975;28;20399;-52
2023/08/03 08:06:21;;;;;;;0.30;0.30;;;19.10;99.90;;;19.53;100.00;99260.78;5185293;28;20046;-51
2023/08/03 08:08:53;;;;;;;0.32;0.32;;;19.10;99.90;;;19.54;100.00;99272.19;5200288;28;20048;-51
2023/08/03 08:11:25;;;;;;;0.73;0.32;;;19.10;99.90;;;19.55;100.00;99267.78;5200336;28;20060;-51
2023/08/03 08:13:59;;;;;;;0.20;0.20;;;19.20;99.90;;;19.59;100.00;99274.78;5193600;28;20049;-52
2023/08/03 08:16:31;;;;;;;0.30;0.30;;;19.20;99.90;;;19.62;100.00;99275.53;5200341;28;20072;-51
2023/08/03 08:19:08;;;;;;;0.63;0.40;;;19.20;99.90;;;19.66;100.00;99271.91;5188591;28;20050;-50
2023/08/03 08:21:41;;;;;;;0.30;0.30;;;19.30;99.90;;;19.67;100.00;99273.66;5187272;28;20042;-52
2023/08/03 08:24:13;;;;;;;0.93;0.40;;;19.30;99.90;;;19.71;100.00;99277.97;5200465;28;20045;-52
2023/08/03 08:26:46;;;;;;;0.45;0.30;;;19.30;99.90;;;19.79;100.00;99281.25;5201204;28;20053;-52
2023/08/03 08:29:18;;;;;;;0.25;0.20;;;19.40;99.90;;;19.86;100.00;99281.97;5201438;28;20053;-51
2023/08/03 08:31:50;;;;;;;0.65;0.43;;;19.50;99.90;;;19.96;100.00;99295.81;5201158;28;20049;-52
2023/08/03 08:34:24;;;;;;;0.30;0.30;;;19.50;99.90;;;20.00;100.00;99285.09;5201204;28;20349;-54
2023/08/03 08:36:57;;;;;;;0.22;0.22;;;19.60;99.90;;;20.05;100.00;99279.69;5200542;28;20140;-54
2023/08/03 08:39:30;;;;;;;0.57;0.20;;;19.60;99.90;;;20.10;100.00;99298.94;5192443;28;20415;-53
2023/08/03 08:42:12;;;;;;;0.20;0.20;;;19.70;99.90;;;20.06;100.00;99307.88;5182887;28;20096;-53
2023/08/03 08:44:44;;;;;;;0.10;0.10;;;19.60;99.90;;;20.03;100.00;99300.03;5188043;28;20045;-53
2023/08/03 08:47:20;;;;;;;0.25;0.25;;;19.60;99.90;;;20.00;100.00;99294.81;5201057;28;20045;-52
2023/08/03 08:49:54;;;;;;;0.90;0.30;;;19.60;99.90;;;19.97;100.00;99297.56;5201031;28;20037;-53
2023/08/03 08:52:27;;;;;;;0.30;0.30;;;19.60;99.90;;;19.95;100.00;99304.63;5193580;28;20053;-53
2023/08/03 08:55:11;;;;;;;0.30;0.30;;;19.60;99.90;;;19.92;100.00;99302.09;5201109;28;20050;-53
2023/08/03 08:57:44;;;;;;;0.50;0.30;;;19.50;99.90;;;19.92;100.00;99304.72;5201076;28;20053;-52
2023/08/03 09:00:17;;;;;;;0.57;0.40;;;19.50;99.90;;;19.97;100.00;99313.41;5200913;28;20052;-52
2023/08/03 09:02:50;;;;;;;0.40;0.40;;;19.60;99.90;;;20.01;100.00;99320.34;5202246;28;20050;-52
2023/08/03 09:05:25;;;;;;;0.30;0.30;;;19.60;99.90;;;20.04;100.00;99321.13;5202274;28;20739;-53
2023/08/03 09:08:03;;;;;;;0.63;0.50;;;19.60;99.90;;;20.13;100.00;99320.00;5183688;28;20057;-52
2023/08/03 09:10:50;;;;;;;0.32;0.32;;;19.70;99.90;;;20.19;100.00;99330.44;5180443;28;20050;-52
2023/08/03 09:13:28;;;;;;;0.70;0.32;;;19.70;99.90;;;20.25;100.00;99322.31;5183270;28;20045;-52
2023/08/03 09:16:00;;;;;;;0.40;0.40;;;19.80;99.90;;;20.29;100.00;99341.63;5185637;28;20038;-52
2023/08/03 09:18:33;;;;;;;0.20;0.20;;;19.80;99.90;;;20.32;100.00;99347.69;5204671;28;20465;-52
2023/08/03 09:21:15;;;;;;;0.40;0.40;;;19.90;99.90;;;20.35;100.00;99351.19;5204553;28;20049;-52
2023/08/03 09:23:48;;;;;;;0.28;0.28;;;19.90;99.90;;;20.36;100.00;99343.19;5204746;28;20053;-51
2023/08/03 09:26:23;;;;;;;1.00;0.35;;;19.90;99.90;;;20.37;100.00;99355.50;5184502;28;20045;-52
2023/08/03 09:28:55;;;;;;;0.60;0.20;;;19.90;99.90;;;20.33;100.00;99360.00;5200688;28;20050;-53
2023/08/03 09:31:28;;;;;;;0.30;0.30;;;19.90;99.90;;;20.30;100.00;99357.47;5204373;28;20056;-53
2023/08/03 09:34:01;;;;;;;0.40;0.28;;;19.90;99.90;;;20.25;100.00;99369.94;5187133;28;20042;-53
2023/08/03 09:36:35;;;;;;;0.30;0.30;;;19.80;99.90;;;20.23;100.00;99361.19;5183703;28;20113;-52
2023/08/03 09:39:11;;;;;;;0.75;0.30;;;19.80;99.90;;;20.20;100.00;99363.91;5183880;28;20054;-52
2023/08/03 09:41:44;;;;;;;0.25;0.25;;;19.80;99.90;;;20.23;100.00;99373.56;5183801;28;20443;-53
2023/08/03 09:44:18;;;;;;;0.30;0.30;;;19.80;99.90;;;20.24;100.00;99380.56;5195022;28;20049;-52
2023/08/03 09:46:50;;;;;;;1.05;0.32;;;19.80;99.90;;;20.27;100.00;99376.06;5203772;28;20523;-51
2023/08/03 09:49:26;;;;;;;0.20;0.20;;;19.80;99.90;;;20.28;100.00;99383.09;5202122;28;20407;-51
2023/08/03 09:52:07;;;;;;;0.50;0.32;;;19.80;99.90;;;20.31;100.00;99385.66;5193843;28;20150;-51
2023/08/03 09:54:42;;;;;;;;;;;19.90;99.90;;;20.30;100.00;99389.22;5201991;28;20037;-51
2023/08/03 09:57:18;;;;;;;0.35;0.35;;;19.80;99.90;;;20.31;100.00;99388.31;5189653;28;20439;-51
2023/08/03 09:59:54;;;;;;;0.32;0.25;;;19.90;99.90;;;20.31;100.00;99393.59;5201859;28;20053;-51
2023/08/03 10:02:30;;;;;;;0.50;0.40;;;19.90;99.90;;;20.28;100.00;99412.22;5210779;28;20120;-51
2023/08/03 10:05:05;;;;;;;0.30;0.30;;;19.90;99.90;;;20.27;100.00;99413.09;5201852;28;20048;-52
2023/08/03 10:07:49;;;;;;;0.65;0.30;;;19.80;99.90;;;20.23;100.00;99418.53;5196591;28;20046;-51
2023/08/03 10:10:25;;;;;;;0.30;0.30;;;19.80;99.90;;;20.17;100.00;99414.25;5197524;28;20167;-51
2023/08/03 10:13:02;;;;;;;0.60;0.60;;;19.80;99.90;;;20.09;100.00;99425.97;5200308;28;20502;-52
2023/08/03 10:15:36;;;;;;;1.30;0.25;;;19.70;99.90;;;20.01;100.00;99432.28;5201581;28;20037;-50
2023/08/03 10:18:08;;;;;;;0.20;0.20;;;19.70;99.90;;;19.98;100.00;99437.66;5195292;28;20049;-51
2023/08/03 10:20:41;;;;;;;0.30;0.30;;;19.60;99.90;;;19.95;100.00;99428.94;5201741;28;20375;-51
2023/08/03 10:23:19;;;;;;;0.28;0.28;;;19.60;99.90;;;19.94;100.00;99430.69;5201647;28;20050;-51
2023/08/03 10:25:54;;;;;;;0.80;0.30;;;19.60;99.90;;;19.94;100.00;99432.47;5201583;28;20046;-51
2023/08/03 10:28:28;;;;;;;1.73;0.43;;;19.50;99.90;;;19.96;100.00;99444.78;5200932;28;20095;-51
2023/08/03 10:31:11;;;;;;;0.63;0.30;;;19.60;99.90;;;19.99;100.00;99449.09;5199970;28;20060;-51
2023/08/03 10:34:06;;;;;;;0.22;0.22;;;19.60;99.90;;;20.01;100.00;99455.22;5196113;28;20094;-51
2023/08/03 10:36:50;;;;;;;0.55;0.40;;;19.60;99.90;;;20.12;100.00;99458.47;5201520;28;20132;-52
2023/08/03 10:39:53;;;;;;;0.40;0.38;;;19.70;99.90;;;20.22;100.00;99470.56;5187281;28;20489;-52